AFL1010 EVRA-EDDH
Flight info
| Callsign | AFL1010 |
|---|---|
| Flight time | N/A |
| Altitude | 36000 |
| Route | VALED2H VALED DCT ADAXA DCT NINTA DCT BAGOS N850 BOGMU BOGMU3S |
| Aircraft | A359/H-ICAO/C |
Departure
| Time | N/A |
|---|---|
| Airport | Riga International Airport (EVRA) |
Arrival
| Time | 2026-04-24 19:52 |
|---|---|
| Airport | Hamburg Helmut Schmidt Airport (EDDH) |
| Time | Latitude | Longitude | Altitude | Speed | Heading |
|---|---|---|---|---|---|
| 2026-04-24 16:53 | 56.92295 | 23.97748 | 50 ft | 0 kts | 183° |
| 2026-04-24 18:54 | 55.19754 | 13.65721 | 36081 ft | 453 kts | 251° |
| 2026-04-24 18:55 | 55.15974 | 13.50532 | 36086 ft | 454 kts | 251° |
| 2026-04-24 18:56 | 55.13436 | 13.40409 | 36085 ft | 455 kts | 251° |
| 2026-04-24 18:56 | 55.10891 | 13.30284 | 36089 ft | 456 kts | 251° |
| 2026-04-24 18:57 | 55.08332 | 13.20141 | 36092 ft | 456 kts | 250° |
| 2026-04-24 18:57 | 55.05767 | 13.10024 | 35799 ft | 456 kts | 250° |
| 2026-04-24 18:57 | 55.04479 | 13.04969 | 35419 ft | 456 kts | 250° |
| 2026-04-24 18:58 | 55.03189 | 12.99911 | 35047 ft | 457 kts | 250° |
| 2026-04-24 18:58 | 55.01893 | 12.94847 | 34676 ft | 457 kts | 250° |
| 2026-04-24 18:58 | 55.00616 | 12.89866 | 34316 ft | 457 kts | 250° |
| 2026-04-24 18:58 | 54.99319 | 12.84816 | 33946 ft | 457 kts | 250° |
| 2026-04-24 18:59 | 54.98018 | 12.79767 | 33539 ft | 457 kts | 250° |
| 2026-04-24 18:59 | 54.96714 | 12.74708 | 33134 ft | 458 kts | 250° |
| 2026-04-24 18:59 | 54.95405 | 12.69647 | 32730 ft | 460 kts | 250° |
| 2026-04-24 18:59 | 54.94089 | 12.64567 | 32332 ft | 461 kts | 250° |
| 2026-04-24 19:00 | 54.92769 | 12.59484 | 31946 ft | 462 kts | 250° |
| 2026-04-24 19:00 | 54.91441 | 12.54381 | 31553 ft | 464 kts | 250° |
| 2026-04-24 19:00 | 54.90109 | 12.49278 | 31182 ft | 465 kts | 249° |
| 2026-04-24 19:00 | 54.88752 | 12.44250 | 30914 ft | 468 kts | 247° |
| 2026-04-24 19:01 | 54.87120 | 12.39339 | 30402 ft | 471 kts | 242° |
| 2026-04-24 19:01 | 54.85341 | 12.34567 | 29806 ft | 471 kts | 240° |
| 2026-04-24 19:01 | 54.83498 | 12.29877 | 29311 ft | 468 kts | 239° |
| 2026-04-24 19:01 | 54.81634 | 12.25257 | 29137 ft | 467 kts | 239° |
| 2026-04-24 19:02 | 54.80398 | 12.22210 | 28963 ft | 465 kts | 239° |
| 2026-04-24 19:02 | 54.77914 | 12.16089 | 28597 ft | 463 kts | 239° |
| 2026-04-24 19:02 | 54.76070 | 12.11529 | 28326 ft | 462 kts | 239° |
| 2026-04-24 19:02 | 54.74230 | 12.06966 | 28043 ft | 461 kts | 239° |
| 2026-04-24 19:03 | 54.72405 | 12.02435 | 27792 ft | 459 kts | 239° |
| 2026-04-24 19:03 | 54.70580 | 11.97901 | 27520 ft | 458 kts | 239° |
| 2026-04-24 19:03 | 54.68784 | 11.93449 | 27251 ft | 457 kts | 239° |
| 2026-04-24 19:03 | 54.66970 | 11.88957 | 27021 ft | 456 kts | 239° |
| 2026-04-24 19:04 | 54.65154 | 11.84468 | 26759 ft | 455 kts | 239° |
| 2026-04-24 19:04 | 54.63346 | 11.80009 | 26486 ft | 454 kts | 239° |
| 2026-04-24 19:04 | 54.61535 | 11.75551 | 26233 ft | 452 kts | 239° |
| 2026-04-24 19:04 | 54.59730 | 11.71116 | 25924 ft | 449 kts | 239° |
| 2026-04-24 19:05 | 54.57945 | 11.66744 | 25401 ft | 443 kts | 239° |
| 2026-04-24 19:05 | 54.56176 | 11.62416 | 25104 ft | 444 kts | 239° |
| 2026-04-24 19:05 | 54.54390 | 11.58046 | 25038 ft | 447 kts | 239° |
| 2026-04-24 19:05 | 54.52619 | 11.53721 | 25034 ft | 447 kts | 239° |
| 2026-04-24 19:06 | 54.50832 | 11.49369 | 24942 ft | 442 kts | 239° |
| 2026-04-24 19:06 | 54.49066 | 11.45082 | 24284 ft | 438 kts | 238° |
| 2026-04-24 19:06 | 54.47300 | 11.40799 | 23497 ft | 439 kts | 238° |
| 2026-04-24 19:06 | 54.45536 | 11.36548 | 22750 ft | 436 kts | 238° |
| 2026-04-24 19:07 | 54.43582 | 11.32579 | 22091 ft | 434 kts | 231° |
| 2026-04-24 19:07 | 54.41468 | 11.28889 | 21427 ft | 431 kts | 229° |
| 2026-04-24 19:07 | 54.40043 | 11.26549 | 20994 ft | 428 kts | 227° |
| 2026-04-24 19:07 | 54.37130 | 11.21958 | 20122 ft | 422 kts | 226° |
| 2026-04-24 19:08 | 54.34955 | 11.18601 | 19479 ft | 419 kts | 226° |
| 2026-04-24 19:08 | 54.33523 | 11.16398 | 19050 ft | 416 kts | 226° |
| 2026-04-24 19:08 | 54.31381 | 11.13096 | 18419 ft | 412 kts | 226° |
| 2026-04-24 19:08 | 54.29261 | 11.09815 | 17688 ft | 409 kts | 227° |
| 2026-04-24 19:09 | 54.27162 | 11.06556 | 16952 ft | 406 kts | 227° |
| 2026-04-24 19:09 | 54.24411 | 11.02277 | 16000 ft | 401 kts | 227° |
| 2026-04-24 19:09 | 54.23019 | 11.00112 | 15547 ft | 399 kts | 227° |
| 2026-04-24 19:09 | 54.20976 | 10.96937 | 14876 ft | 396 kts | 227° |
| 2026-04-24 19:10 | 54.18943 | 10.93782 | 14215 ft | 393 kts | 227° |
| 2026-04-24 19:10 | 54.16951 | 10.90694 | 13508 ft | 390 kts | 227° |
| 2026-04-24 19:10 | 54.14951 | 10.87598 | 12769 ft | 387 kts | 227° |
| 2026-04-24 19:10 | 54.12964 | 10.84524 | 12047 ft | 385 kts | 227° |
| 2026-04-24 19:11 | 54.10988 | 10.81475 | 11355 ft | 382 kts | 227° |
| 2026-04-24 19:11 | 54.09045 | 10.78487 | 11010 ft | 370 kts | 227° |
| 2026-04-24 19:11 | 54.07172 | 10.75617 | 10736 ft | 356 kts | 227° |
| 2026-04-24 19:11 | 54.05357 | 10.72841 | 10474 ft | 344 kts | 227° |
| 2026-04-24 19:12 | 54.03612 | 10.70169 | 10232 ft | 332 kts | 227° |
| 2026-04-24 19:12 | 54.01924 | 10.67585 | 9994 ft | 321 kts | 228° |
| 2026-04-24 19:12 | 54.00291 | 10.65083 | 9741 ft | 310 kts | 228° |
| 2026-04-24 19:12 | 53.98719 | 10.62675 | 9493 ft | 301 kts | 228° |
| 2026-04-24 19:13 | 53.97692 | 10.61102 | 9271 ft | 297 kts | 228° |
| 2026-04-24 19:13 | 53.95679 | 10.58012 | 8750 ft | 294 kts | 228° |
| 2026-04-24 19:13 | 53.94165 | 10.55689 | 8344 ft | 292 kts | 228° |
| 2026-04-24 19:13 | 53.92661 | 10.53389 | 7926 ft | 290 kts | 227° |
| 2026-04-24 19:14 | 53.91169 | 10.51111 | 7551 ft | 288 kts | 227° |
| 2026-04-24 19:14 | 53.89678 | 10.48840 | 7157 ft | 286 kts | 227° |
| 2026-04-24 19:14 | 53.88203 | 10.46592 | 6754 ft | 284 kts | 227° |
| 2026-04-24 19:14 | 53.86809 | 10.44247 | 6381 ft | 282 kts | 230° |
| 2026-04-24 19:15 | 53.85429 | 10.41901 | 5979 ft | 280 kts | 230° |
| 2026-04-24 19:15 | 53.84061 | 10.39573 | 5565 ft | 278 kts | 230° |
| 2026-04-24 19:15 | 53.82724 | 10.37282 | 5217 ft | 275 kts | 231° |
| 2026-04-24 19:15 | 53.81408 | 10.35027 | 5050 ft | 265 kts | 231° |
| 2026-04-24 19:16 | 53.78914 | 10.30748 | 4725 ft | 247 kts | 231° |
| 2026-04-24 19:16 | 53.77730 | 10.28708 | 4586 ft | 239 kts | 231° |
| 2026-04-24 19:16 | 53.76590 | 10.26648 | 4183 ft | 240 kts | 236° |
| 2026-04-24 19:17 | 53.75543 | 10.24459 | 3994 ft | 239 kts | 238° |
| 2026-04-24 19:17 | 53.74502 | 10.22250 | 3987 ft | 241 kts | 237° |
| 2026-04-24 19:17 | 53.73459 | 10.20077 | 3977 ft | 232 kts | 237° |
| 2026-04-24 19:17 | 53.72480 | 10.18059 | 3979 ft | 217 kts | 237° |
| 2026-04-24 19:18 | 53.71537 | 10.16137 | 3970 ft | 202 kts | 237° |
| 2026-04-24 19:18 | 53.70627 | 10.14477 | 3961 ft | 194 kts | 225° |
| 2026-04-24 19:18 | 53.69351 | 10.13689 | 3985 ft | 204 kts | 186° |
| 2026-04-24 19:18 | 53.67986 | 10.14279 | 3988 ft | 206 kts | 146° |
| 2026-04-24 19:19 | 53.67061 | 10.16038 | 3997 ft | 199 kts | 109° |
| 2026-04-24 19:19 | 53.66640 | 10.18213 | 4032 ft | 194 kts | 96° |
| 2026-04-24 19:19 | 53.66362 | 10.20428 | 3998 ft | 193 kts | 94° |
| 2026-04-24 19:19 | 53.66106 | 10.22654 | 3988 ft | 194 kts | 94° |
| 2026-04-24 19:20 | 53.65855 | 10.24890 | 3996 ft | 194 kts | 94° |
| 2026-04-24 19:20 | 53.65875 | 10.27092 | 3988 ft | 184 kts | 66° |
| 2026-04-24 19:20 | 53.66357 | 10.29061 | 3984 ft | 180 kts | 56° |
| 2026-04-24 19:20 | 53.66925 | 10.30928 | 3985 ft | 179 kts | 54° |
| 2026-04-24 19:21 | 53.67504 | 10.32793 | 3983 ft | 179 kts | 54° |
| 2026-04-24 19:21 | 53.68078 | 10.34645 | 3981 ft | 178 kts | 54° |
| 2026-04-24 19:21 | 53.68646 | 10.36471 | 3981 ft | 178 kts | 54° |
| 2026-04-24 19:21 | 53.69233 | 10.38344 | 3951 ft | 178 kts | 54° |
| 2026-04-24 19:22 | 53.69812 | 10.40163 | 3953 ft | 178 kts | 53° |
| 2026-04-24 19:22 | 53.70665 | 10.41542 | 3948 ft | 166 kts | 18° |
| 2026-04-24 19:22 | 53.71750 | 10.41604 | 3950 ft | 157 kts | 339° |
| 2026-04-24 19:22 | 53.72574 | 10.40436 | 3957 ft | 157 kts | 310° |
| 2026-04-24 19:23 | 53.73161 | 10.38899 | 3898 ft | 153 kts | 305° |
| 2026-04-24 19:23 | 53.73694 | 10.37339 | 3509 ft | 155 kts | 304° |
| 2026-04-24 19:23 | 53.74236 | 10.35738 | 3099 ft | 158 kts | 304° |
| 2026-04-24 19:23 | 53.74765 | 10.34146 | 2955 ft | 155 kts | 302° |
| 2026-04-24 19:24 | 53.74951 | 10.32292 | 2985 ft | 167 kts | 272° |
| 2026-04-24 19:24 | 53.74761 | 10.30344 | 2980 ft | 169 kts | 265° |
| 2026-04-24 19:24 | 53.74504 | 10.28409 | 2984 ft | 169 kts | 264° |
| 2026-04-24 19:24 | 53.74119 | 10.26501 | 2978 ft | 177 kts | 249° |
| 2026-04-24 19:25 | 53.73480 | 10.24706 | 2978 ft | 176 kts | 251° |
| 2026-04-24 19:25 | 53.73017 | 10.22811 | 2982 ft | 178 kts | 252° |
| 2026-04-24 19:25 | 53.72285 | 10.21119 | 2990 ft | 182 kts | 237° |
| 2026-04-24 19:25 | 53.71521 | 10.19449 | 2973 ft | 176 kts | 250° |
| 2026-04-24 19:26 | 53.71154 | 10.17525 | 2987 ft | 173 kts | 260° |
| 2026-04-24 19:26 | 53.70695 | 10.15621 | 2962 ft | 177 kts | 252° |
| 2026-04-24 19:26 | 53.70087 | 10.13802 | 2966 ft | 179 kts | 246° |
| 2026-04-24 19:26 | 53.69384 | 10.12058 | 2965 ft | 179 kts | 243° |
| 2026-04-24 19:27 | 53.68627 | 10.10361 | 2953 ft | 187 kts | 239° |
| 2026-04-24 19:27 | 53.67761 | 10.08714 | 2889 ft | 187 kts | 235° |
| 2026-04-24 19:27 | 53.66853 | 10.07132 | 2751 ft | 185 kts | 232° |
| 2026-04-24 19:27 | 53.66034 | 10.05510 | 2354 ft | 182 kts | 239° |
| 2026-04-24 19:28 | 53.65252 | 10.03699 | 1952 ft | 206 kts | 240° |
| 2026-04-24 19:28 | 53.64427 | 10.01840 | 1919 ft | 187 kts | 238° |
| 2026-04-24 19:28 | 53.63668 | 10.00252 | 2101 ft | 170 kts | 238° |
| 2026-04-24 19:28 | 53.62929 | 9.98674 | 2344 ft | 173 kts | 240° |
| 2026-04-24 19:29 | 53.61433 | 9.95369 | 2850 ft | 181 kts | 240° |
| 2026-04-24 19:29 | 53.60659 | 9.93694 | 2953 ft | 181 kts | 240° |
| 2026-04-24 19:29 | 53.59883 | 9.92021 | 2964 ft | 183 kts | 240° |
| 2026-04-24 19:30 | 53.59095 | 9.90331 | 2963 ft | 184 kts | 240° |
| 2026-04-24 19:30 | 53.58301 | 9.88633 | 2997 ft | 185 kts | 240° |
| 2026-04-24 19:30 | 53.57508 | 9.86942 | 2989 ft | 183 kts | 240° |
| 2026-04-24 19:30 | 53.56716 | 9.85259 | 2993 ft | 184 kts | 240° |
| 2026-04-24 19:31 | 53.55926 | 9.83589 | 2990 ft | 186 kts | 240° |
| 2026-04-24 19:31 | 53.55120 | 9.81891 | 2998 ft | 187 kts | 240° |
| 2026-04-24 19:31 | 53.54310 | 9.80188 | 2995 ft | 185 kts | 239° |
| 2026-04-24 19:31 | 53.53439 | 9.78618 | 3181 ft | 191 kts | 224° |
| 2026-04-24 19:32 | 53.52126 | 9.77944 | 3656 ft | 207 kts | 184° |
| 2026-04-24 19:32 | 53.50759 | 9.78619 | 3951 ft | 206 kts | 147° |
| 2026-04-24 19:32 | 53.49855 | 9.80398 | 4003 ft | 200 kts | 108° |
| 2026-04-24 19:32 | 53.49659 | 9.82618 | 4002 ft | 189 kts | 79° |
| 2026-04-24 19:33 | 53.49779 | 9.84794 | 4002 ft | 186 kts | 75° |
| 2026-04-24 19:33 | 53.49946 | 9.86946 | 4004 ft | 186 kts | 74° |
| 2026-04-24 19:33 | 53.50116 | 9.89095 | 3990 ft | 186 kts | 74° |
| 2026-04-24 19:33 | 53.50292 | 9.91260 | 3992 ft | 185 kts | 74° |
| 2026-04-24 19:34 | 53.50466 | 9.93374 | 3998 ft | 185 kts | 74° |
| 2026-04-24 19:34 | 53.50642 | 9.95526 | 3990 ft | 186 kts | 74° |
| 2026-04-24 19:34 | 53.50818 | 9.97682 | 3992 ft | 187 kts | 74° |
| 2026-04-24 19:34 | 53.50995 | 9.99839 | 3992 ft | 186 kts | 74° |
| 2026-04-24 19:35 | 53.51175 | 10.02006 | 4008 ft | 193 kts | 74° |
| 2026-04-24 19:35 | 53.51389 | 10.04355 | 3982 ft | 212 kts | 74° |
| 2026-04-24 19:35 | 53.51621 | 10.06842 | 3972 ft | 217 kts | 74° |
| 2026-04-24 19:35 | 53.51852 | 10.09348 | 3968 ft | 218 kts | 74° |
| 2026-04-24 19:36 | 53.52088 | 10.11868 | 3970 ft | 218 kts | 74° |
| 2026-04-24 19:36 | 53.52328 | 10.14372 | 3966 ft | 217 kts | 74° |
| 2026-04-24 19:36 | 53.52566 | 10.16842 | 3974 ft | 217 kts | 74° |
| 2026-04-24 19:36 | 53.52804 | 10.19343 | 3966 ft | 217 kts | 74° |
| 2026-04-24 19:37 | 53.53050 | 10.21846 | 3972 ft | 217 kts | 74° |
| 2026-04-24 19:37 | 53.53296 | 10.24357 | 3964 ft | 217 kts | 74° |
| 2026-04-24 19:37 | 53.53538 | 10.26867 | 3965 ft | 218 kts | 74° |
| 2026-04-24 19:37 | 53.53784 | 10.29375 | 3972 ft | 218 kts | 74° |
| 2026-04-24 19:38 | 53.54030 | 10.31885 | 3970 ft | 218 kts | 74° |
| 2026-04-24 19:38 | 53.54269 | 10.34366 | 3969 ft | 218 kts | 74° |
| 2026-04-24 19:38 | 53.54514 | 10.36914 | 3965 ft | 218 kts | 74° |
| 2026-04-24 19:38 | 53.54755 | 10.39425 | 3967 ft | 218 kts | 74° |
| 2026-04-24 19:39 | 53.54998 | 10.41907 | 3970 ft | 218 kts | 74° |
| 2026-04-24 19:39 | 53.55246 | 10.44424 | 3966 ft | 219 kts | 74° |
| 2026-04-24 19:39 | 53.55491 | 10.46941 | 3960 ft | 219 kts | 74° |
| 2026-04-24 19:39 | 53.55734 | 10.49468 | 3955 ft | 218 kts | 74° |
| 2026-04-24 19:40 | 53.55975 | 10.51978 | 3953 ft | 218 kts | 74° |
| 2026-04-24 19:40 | 53.56224 | 10.54498 | 3957 ft | 218 kts | 74° |
| 2026-04-24 19:40 | 53.56477 | 10.57021 | 3948 ft | 219 kts | 74° |
| 2026-04-24 19:40 | 53.56728 | 10.59539 | 3952 ft | 219 kts | 74° |
| 2026-04-24 19:41 | 53.56978 | 10.62067 | 3947 ft | 219 kts | 74° |
| 2026-04-24 19:41 | 53.57232 | 10.64588 | 3955 ft | 219 kts | 74° |
| 2026-04-24 19:41 | 53.57547 | 10.67044 | 3938 ft | 216 kts | 65° |
| 2026-04-24 19:41 | 53.58401 | 10.68987 | 3944 ft | 202 kts | 31° |
| 2026-04-24 19:42 | 53.59677 | 10.69704 | 3945 ft | 192 kts | 357° |
| 2026-04-24 19:42 | 53.60903 | 10.69001 | 3944 ft | 189 kts | 323° |
| 2026-04-24 19:42 | 53.61636 | 10.67169 | 3950 ft | 194 kts | 292° |
| 2026-04-24 19:42 | 53.61941 | 10.64942 | 3946 ft | 196 kts | 285° |
| 2026-04-24 19:43 | 53.62165 | 10.62683 | 3948 ft | 196 kts | 284° |
| 2026-04-24 19:43 | 53.62377 | 10.60412 | 3944 ft | 197 kts | 284° |
| 2026-04-24 19:43 | 53.62588 | 10.58138 | 3946 ft | 196 kts | 284° |
| 2026-04-24 19:43 | 53.62804 | 10.55865 | 3947 ft | 197 kts | 284° |
| 2026-04-24 19:44 | 53.63019 | 10.53586 | 3947 ft | 197 kts | 284° |
| 2026-04-24 19:44 | 53.63231 | 10.51307 | 3950 ft | 197 kts | 284° |
| 2026-04-24 19:44 | 53.63437 | 10.49064 | 3951 ft | 196 kts | 284° |
| 2026-04-24 19:44 | 53.63690 | 10.46817 | 3943 ft | 194 kts | 292° |
| 2026-04-24 19:45 | 53.64467 | 10.45046 | 3952 ft | 188 kts | 324° |
| 2026-04-24 19:45 | 53.65592 | 10.43940 | 3953 ft | 187 kts | 333° |
| 2026-04-24 19:45 | 53.66760 | 10.42978 | 3951 ft | 187 kts | 334° |
| 2026-04-24 19:45 | 53.67929 | 10.42029 | 3948 ft | 186 kts | 334° |
| 2026-04-24 19:46 | 53.69098 | 10.41082 | 3950 ft | 186 kts | 334° |
| 2026-04-24 19:46 | 53.70263 | 10.40137 | 3951 ft | 186 kts | 334° |
| 2026-04-24 19:46 | 53.71430 | 10.39192 | 3951 ft | 186 kts | 334° |
| 2026-04-24 19:46 | 53.72599 | 10.38248 | 3953 ft | 186 kts | 334° |
| 2026-04-24 19:47 | 53.73765 | 10.37307 | 3953 ft | 186 kts | 334° |
| 2026-04-24 19:47 | 53.74934 | 10.36367 | 3953 ft | 186 kts | 334° |
| 2026-04-24 19:47 | 53.76083 | 10.35404 | 3951 ft | 187 kts | 330° |
| 2026-04-24 19:47 | 53.76934 | 10.33761 | 3949 ft | 193 kts | 297° |
| 2026-04-24 19:48 | 53.77075 | 10.31483 | 3970 ft | 201 kts | 270° |
| 2026-04-24 19:48 | 53.76824 | 10.29138 | 3965 ft | 204 kts | 264° |
| 2026-04-24 19:48 | 53.76230 | 10.24755 | 3953 ft | 176 kts | 264° |
| 2026-04-24 19:49 | 53.75631 | 10.20811 | 3768 ft | 184 kts | 261° |
| 2026-04-24 19:49 | 53.74297 | 10.16471 | 3173 ft | 229 kts | 244° |
| 2026-04-24 19:50 | 53.70566 | 10.10358 | 3204 ft | 286 kts | 204° |
| 2026-04-24 19:50 | 53.68990 | 10.08533 | 2672 ft | 267 kts | 234° |
| 2026-04-24 19:51 | 53.66422 | 10.04645 | 1681 ft | 242 kts | 210° |
| 2026-04-24 19:51 | 53.65080 | 10.03211 | 1024 ft | 213 kts | 236° |
| 2026-04-24 19:52 | 53.63434 | 9.99598 | 168 ft | 172 kts | 236° |
| 2026-04-24 19:52 | 53.62747 | 9.98233 | 47 ft | 129 kts | 231° |
| 2026-04-24 19:52 | 53.62433 | 9.97597 | 51 ft | 18 kts | 230° |
| 2026-04-24 19:52 | 53.62355 | 9.97441 | 51 ft | 22 kts | 226° |
| 2026-04-24 19:53 | 53.62226 | 9.97409 | 50 ft | 17 kts | 147° |
| 2026-04-24 19:53 | 53.62206 | 9.97440 | 50 ft | 0 kts | 133° |
| 2026-04-24 19:54 | 53.62206 | 9.97441 | 50 ft | 0 kts | 133° |
| 2026-04-24 19:56 | 53.62188 | 9.97495 | 50 ft | 8 kts | 112° |
| 2026-04-24 19:56 | 53.62192 | 9.97585 | 50 ft | 8 kts | 71° |
| 2026-04-24 19:56 | 53.62207 | 9.97632 | 50 ft | 0 kts | 58° |
| 2026-04-24 19:57 | 53.62217 | 9.97657 | 50 ft | 10 kts | 55° |
| 2026-04-24 19:57 | 53.62294 | 9.97816 | 50 ft | 21 kts | 50° |
| 2026-04-24 19:57 | 53.62391 | 9.98016 | 50 ft | 14 kts | 50° |
| 2026-04-24 19:58 | 53.62395 | 9.98024 | 51 ft | 0 kts | 50° |
| 2026-04-24 19:59 | 53.62396 | 9.98026 | 51 ft | 2 kts | 47° |
| 2026-04-24 19:59 | 53.62455 | 9.98122 | 50 ft | 20 kts | 41° |
| 2026-04-24 20:00 | 53.62572 | 9.98315 | 52 ft | 19 kts | 48° |
| 2026-04-24 20:00 | 53.62660 | 9.98491 | 52 ft | 21 kts | 50° |
| 2026-04-24 20:00 | 53.62718 | 9.98609 | 52 ft | 0 kts | 50° |
| 2026-04-24 20:00 | 53.62738 | 9.98650 | 53 ft | 14 kts | 51° |
| 2026-04-24 20:01 | 53.62820 | 9.98822 | 50 ft | 19 kts | 57° |
| 2026-04-24 20:01 | 53.62801 | 9.98979 | 52 ft | 13 kts | 99° |
| 2026-04-24 20:01 | 53.62801 | 9.99069 | 53 ft | 0 kts | 82° |
| 2026-04-24 20:01 | 53.62809 | 9.99088 | 53 ft | 10 kts | 56° |
| 2026-04-24 20:02 | 53.62817 | 9.99108 | 50 ft | 0 kts | 57° |